createdAt,value
2018-10-11T00:02:14.002Z,11.80
2018-10-11T00:05:18.183Z,11.80
2018-10-11T00:08:22.358Z,11.80
2018-10-11T00:11:26.539Z,11.70
2018-10-11T00:14:30.722Z,11.60
2018-10-11T00:17:34.910Z,11.60
2018-10-11T00:20:39.093Z,11.40
2018-10-11T00:23:43.291Z,11.20
2018-10-11T00:26:47.500Z,11.10
2018-10-11T00:29:51.678Z,11.10
2018-10-11T00:32:55.864Z,11.10
2018-10-11T00:36:00.030Z,11.20
2018-10-11T00:39:05.617Z,11.20
2018-10-11T00:42:09.851Z,11.20
2018-10-11T00:45:14.025Z,11.20
2018-10-11T00:48:18.197Z,11.20
2018-10-11T00:51:22.389Z,11.10
2018-10-11T00:54:26.565Z,11.20
2018-10-11T00:57:30.738Z,11.20
2018-10-11T01:00:34.949Z,11.20
2018-10-11T01:03:39.350Z,11.20
2018-10-11T01:06:43.530Z,11.20
2018-10-11T01:09:48.878Z,11.40
2018-10-11T01:12:53.029Z,11.50
2018-10-11T01:15:57.233Z,11.50
2018-10-11T01:19:01.525Z,11.50
2018-10-11T01:22:05.710Z,11.50
2018-10-11T01:25:09.906Z,11.60
2018-10-11T01:28:14.102Z,11.50
2018-10-11T01:31:23.562Z,11.40
2018-10-11T01:34:27.783Z,11.40
2018-10-11T01:37:31.973Z,11.20
2018-10-11T01:40:36.235Z,11.10
2018-10-11T01:43:40.438Z,11.10
2018-10-11T01:46:44.669Z,11.10
2018-10-11T01:49:48.912Z,11.10
2018-10-11T01:52:53.110Z,11.00
2018-10-11T01:55:57.311Z,11.00
2018-10-11T01:59:01.537Z,10.90
2018-10-11T02:02:05.769Z,11.00
2018-10-11T02:05:10.277Z,11.00
2018-10-11T02:08:14.479Z,11.00
2018-10-11T02:11:18.679Z,10.80
2018-10-11T02:14:22.863Z,10.80
2018-10-11T02:17:27.098Z,10.90
2018-10-11T02:20:31.306Z,10.80
2018-10-11T02:23:35.688Z,10.80
2018-10-11T02:26:39.874Z,10.80
2018-10-11T02:29:44.066Z,10.70
2018-10-11T02:32:48.254Z,10.70
2018-10-11T02:35:52.444Z,10.60
2018-10-11T02:38:56.655Z,10.50
2018-10-11T02:42:00.906Z,10.50
2018-10-11T02:45:05.617Z,10.50
2018-10-11T02:48:10.058Z,10.60
2018-10-11T02:51:14.244Z,10.60
2018-10-11T02:54:18.418Z,10.50
2018-10-11T02:57:39.754Z,10.50
2018-10-11T03:00:43.931Z,10.60
2018-10-11T03:03:48.109Z,10.50
2018-10-11T03:06:52.363Z,10.50
2018-10-11T03:09:57.193Z,10.50
2018-10-11T03:13:01.374Z,10.50
2018-10-11T03:16:05.569Z,10.40
2018-10-11T03:19:09.726Z,10.50
2018-10-11T03:22:13.898Z,10.40
2018-10-11T03:25:18.070Z,10.40
2018-10-11T03:28:22.267Z,10.30
2018-10-11T03:31:26.526Z,10.20
2018-10-11T03:34:30.951Z,10.30
2018-10-11T03:37:35.301Z,10.30
2018-10-11T03:40:39.462Z,10.20
2018-10-11T03:43:43.715Z,10.10
2018-10-11T03:46:47.898Z,10.10
2018-10-11T03:49:52.065Z,10.00
2018-10-11T03:52:57.187Z,10.00
2018-10-11T03:56:01.343Z,9.90
2018-10-11T03:59:05.518Z,9.90
2018-10-11T04:02:09.714Z,9.90
2018-10-11T04:05:13.864Z,9.80
2018-10-11T04:08:17.999Z,9.80
2018-10-11T04:11:22.118Z,9.90
2018-10-11T04:14:26.233Z,9.90
2018-10-11T04:17:30.346Z,9.90
2018-10-11T04:20:34.463Z,9.90
2018-10-11T04:23:38.579Z,9.90
2018-10-11T04:26:42.691Z,9.80
2018-10-11T04:29:46.877Z,9.90
2018-10-11T04:32:50.995Z,9.90
2018-10-11T04:35:55.467Z,9.90
2018-10-11T04:38:59.606Z,9.80
2018-10-11T04:42:03.814Z,9.80
2018-10-11T04:45:07.926Z,9.80
2018-10-11T04:48:12.058Z,9.80
2018-10-11T04:51:16.190Z,9.70
2018-10-11T04:54:20.319Z,9.70
2018-10-11T04:57:24.448Z,9.70
2018-10-11T05:00:28.902Z,9.70
2018-10-11T05:03:33.027Z,9.70
2018-10-11T05:06:37.152Z,9.70
2018-10-11T05:09:41.281Z,9.60
2018-10-11T05:12:45.423Z,9.60
2018-10-11T05:15:49.534Z,9.70
2018-10-11T05:18:58.074Z,9.60
2018-10-11T05:22:02.198Z,9.60
2018-10-11T05:25:06.339Z,9.60
2018-10-11T05:28:10.466Z,9.70
2018-10-11T05:31:15.086Z,9.80
2018-10-11T05:34:19.222Z,9.70
2018-10-11T05:37:23.350Z,9.60
2018-10-11T05:40:27.475Z,9.50
2018-10-11T05:43:32.143Z,9.50
2018-10-11T05:46:36.284Z,9.50
2018-10-11T05:49:40.602Z,9.50
2018-10-11T05:52:45.136Z,9.60
2018-10-11T05:55:49.927Z,9.60
2018-10-11T05:58:54.133Z,9.70
2018-10-11T06:01:58.316Z,9.90
2018-10-11T06:05:02.487Z,10.40
2018-10-11T06:08:07.171Z,10.90
2018-10-11T06:11:11.843Z,11.40
2018-10-11T06:14:16.311Z,12.20
2018-10-11T06:17:20.536Z,13.00
2018-10-11T06:20:24.689Z,13.50
2018-10-11T06:23:28.849Z,14.10
2018-10-11T06:26:33.440Z,14.80
2018-10-11T06:29:37.661Z,15.20
2018-10-11T06:32:42.350Z,15.70
2018-10-11T06:35:47.428Z,16.10
2018-10-11T06:38:52.008Z,16.70
2018-10-11T06:41:56.245Z,17.30
2018-10-11T06:45:00.315Z,17.70
2018-10-11T06:48:08.547Z,17.60
2018-10-11T06:51:12.679Z,16.80
2018-10-11T06:54:16.987Z,16.00
2018-10-11T06:57:21.126Z,15.30
2018-10-11T07:00:25.366Z,14.90
2018-10-11T07:03:32.523Z,14.60
2018-10-11T07:06:36.669Z,14.20
2018-10-11T07:09:40.800Z,14.00
2018-10-11T07:12:45.127Z,13.90
2018-10-11T07:15:49.274Z,13.80
2018-10-11T07:18:53.407Z,13.80
2018-10-11T07:21:57.566Z,13.80
2018-10-11T07:25:01.728Z,13.80
2018-10-11T07:28:05.888Z,13.70
2018-10-11T07:31:10.043Z,13.80
2018-10-11T07:34:14.189Z,13.70
2018-10-11T07:37:18.346Z,13.70
2018-10-11T07:40:22.530Z,13.80
2018-10-11T07:43:26.667Z,13.90
2018-10-11T07:46:30.796Z,13.90
2018-10-11T07:49:34.949Z,14.00
2018-10-11T07:52:39.088Z,14.10
2018-10-11T07:55:43.243Z,14.20
2018-10-11T07:58:47.469Z,14.30
2018-10-11T08:01:51.689Z,14.40
2018-10-11T08:04:55.734Z,14.50
2018-10-11T08:07:59.938Z,14.60
2018-10-11T08:11:04.236Z,14.70
2018-10-11T08:14:08.170Z,14.80
2018-10-11T08:17:12.496Z,14.90
2018-10-11T08:20:16.553Z,15.10
2018-10-11T08:23:20.909Z,15.20
2018-10-11T08:26:25.387Z,15.20
2018-10-11T08:29:29.174Z,15.30
2018-10-11T08:32:33.451Z,15.30
2018-10-11T08:35:37.466Z,15.40
2018-10-11T08:38:41.743Z,15.60
2018-10-11T08:41:45.743Z,15.70
2018-10-11T08:44:49.958Z,15.70
2018-10-11T08:47:54.093Z,15.80
2018-10-11T08:50:58.324Z,15.90
2018-10-11T08:54:07.686Z,16.00
2018-10-11T08:57:11.838Z,16.10
2018-10-11T09:00:16.042Z,16.20
2018-10-11T09:03:20.243Z,16.30
2018-10-11T09:06:24.348Z,16.50
2018-10-11T09:09:28.612Z,16.80
2018-10-11T09:12:32.722Z,17.20
2018-10-11T09:15:36.932Z,17.70
2018-10-11T09:18:41.095Z,18.10
2018-10-11T09:21:45.248Z,18.50
2018-10-11T09:24:49.407Z,19.10
2018-10-11T09:27:53.565Z,19.50
2018-10-11T09:30:57.710Z,19.90
2018-10-11T09:34:01.871Z,20.30
2018-10-11T09:37:06.091Z,20.60
2018-10-11T09:40:10.639Z,20.80
2018-10-11T09:43:14.837Z,21.10
2018-10-11T09:46:18.951Z,21.30
2018-10-11T09:49:23.125Z,21.50
2018-10-11T09:52:27.279Z,21.60
2018-10-11T09:55:31.495Z,21.70
2018-10-11T09:58:35.642Z,21.90
2018-10-11T10:01:46.022Z,22.10
2018-10-11T10:04:51.659Z,22.30
2018-10-11T10:07:55.823Z,22.40
2018-10-11T10:11:00.001Z,22.60
2018-10-11T10:14:04.158Z,22.70
2018-10-11T10:17:08.307Z,22.90
2018-10-11T10:20:12.479Z,23.00
2018-10-11T10:23:16.632Z,23.30
2018-10-11T10:26:20.794Z,23.30
2018-10-11T10:29:24.970Z,23.40
2018-10-11T10:32:29.140Z,23.40
2018-10-11T10:35:33.304Z,23.60
2018-10-11T10:38:37.458Z,23.70
2018-10-11T10:41:41.830Z,23.80
2018-10-11T10:44:45.984Z,23.90
2018-10-11T10:47:50.122Z,24.00
2018-10-11T10:50:54.282Z,24.10
2018-10-11T10:53:58.435Z,24.10
2018-10-11T10:57:03.063Z,24.20
2018-10-11T11:00:08.441Z,24.30
2018-10-11T11:03:12.578Z,24.30
2018-10-11T11:06:17.354Z,24.30
2018-10-11T11:09:21.511Z,24.30
2018-10-11T11:12:25.680Z,24.40
2018-10-11T11:15:29.850Z,24.30
2018-10-11T11:18:34.003Z,24.50
2018-10-11T11:21:38.182Z,24.50
2018-10-11T11:24:42.339Z,24.80
2018-10-11T11:27:46.517Z,25.00
2018-10-11T11:30:50.707Z,25.00
2018-10-11T11:33:54.855Z,24.80
2018-10-11T11:36:59.008Z,24.80
2018-10-11T11:40:03.256Z,24.70
2018-10-11T11:43:07.720Z,24.60
2018-10-11T11:46:11.864Z,24.40
2018-10-11T11:49:15.999Z,24.30
2018-10-11T11:52:20.171Z,24.40
2018-10-11T11:55:24.295Z,24.60
2018-10-11T11:58:28.444Z,24.70
2018-10-11T12:01:32.624Z,24.80
2018-10-11T12:04:36.747Z,25.00
2018-10-11T12:07:40.870Z,25.30
2018-10-11T12:10:45.071Z,25.30
2018-10-11T12:13:49.194Z,25.30
2018-10-11T12:16:53.340Z,25.30
2018-10-11T12:19:57.498Z,25.30
2018-10-11T12:23:02.827Z,25.20
2018-10-11T12:26:07.192Z,24.80
2018-10-11T12:29:11.336Z,24.50
2018-10-11T12:32:15.463Z,24.10
2018-10-11T12:35:20.830Z,23.80
2018-10-11T12:38:24.946Z,23.40
2018-10-11T12:41:29.183Z,23.20
2018-10-11T12:44:33.345Z,23.10
2018-10-11T12:47:37.707Z,23.10
2018-10-11T12:50:41.867Z,23.20
2018-10-11T12:53:48.303Z,23.20
2018-10-11T12:56:50.174Z,23.30
2018-10-11T12:59:54.255Z,23.40
2018-10-11T13:02:58.593Z,23.70
2018-10-11T13:06:02.918Z,24.00
2018-10-11T13:09:08.889Z,24.20
2018-10-11T13:12:12.987Z,24.40
2018-10-11T13:15:17.107Z,24.40
2018-10-11T13:18:21.222Z,24.50
2018-10-11T13:21:25.362Z,24.80
2018-10-11T13:24:30.033Z,25.00
2018-10-11T13:27:33.653Z,24.80
2018-10-11T13:30:38.859Z,24.80
2018-10-11T13:33:42.987Z,24.90
2018-10-11T13:36:47.190Z,24.90
2018-10-11T13:39:54.790Z,24.90
2018-10-11T13:42:55.474Z,25.40
2018-10-11T13:46:01.977Z,25.70
2018-10-11T13:49:03.772Z,26.10
2018-10-11T13:52:11.252Z,26.70
2018-10-11T13:55:15.048Z,26.70
2018-10-11T13:58:16.830Z,26.50
2018-10-11T14:01:20.998Z,26.50
2018-10-11T14:04:25.179Z,26.00
2018-10-11T14:07:29.298Z,25.20
2018-10-11T14:10:33.491Z,24.60
2018-10-11T14:13:38.279Z,23.90
2018-10-11T14:16:42.434Z,23.50
2018-10-11T14:19:46.586Z,23.10
2018-10-11T14:22:50.773Z,22.80
2018-10-11T14:25:54.970Z,22.50
2018-10-11T14:28:59.127Z,22.30
2018-10-11T14:32:03.285Z,22.10
2018-10-11T14:35:07.887Z,22.00
2018-10-11T14:38:12.033Z,21.90
2018-10-11T14:41:16.287Z,22.00
2018-10-11T14:44:20.437Z,21.90
2018-10-11T14:47:24.572Z,21.90
2018-10-11T14:50:29.010Z,21.90
2018-10-11T14:53:33.155Z,21.90
2018-10-11T14:56:37.303Z,21.80
2018-10-11T14:59:41.467Z,21.70
2018-10-11T15:02:45.639Z,21.70
2018-10-11T15:05:49.702Z,21.60
2018-10-11T15:08:53.822Z,21.50
2018-10-11T15:11:57.980Z,21.40
2018-10-11T15:15:02.128Z,21.30
2018-10-11T15:18:06.758Z,21.20
2018-10-11T15:21:10.885Z,21.00
2018-10-11T15:24:15.104Z,20.90
2018-10-11T15:27:19.234Z,20.80
2018-10-11T15:30:23.394Z,20.60
2018-10-11T15:33:27.537Z,20.60
2018-10-11T15:36:31.717Z,20.50
2018-10-11T15:39:35.865Z,20.40
2018-10-11T15:42:40.063Z,20.30
2018-10-11T15:45:44.171Z,20.20
2018-10-11T15:48:48.318Z,20.10
2018-10-11T15:51:52.493Z,19.90
2018-10-11T15:54:56.620Z,19.80
2018-10-11T15:58:00.842Z,19.70
2018-10-11T16:01:04.983Z,19.70
2018-10-11T16:04:09.166Z,19.60
2018-10-11T16:07:13.312Z,19.50
2018-10-11T16:10:17.455Z,19.50
2018-10-11T16:13:21.584Z,19.40
2018-10-11T16:16:25.714Z,19.40
2018-10-11T16:19:29.858Z,19.30
2018-10-11T16:22:33.988Z,19.20
2018-10-11T16:25:38.295Z,19.20
2018-10-11T16:28:42.728Z,19.10
2018-10-11T16:31:47.332Z,19.10
2018-10-11T16:34:51.484Z,19.00
2018-10-11T16:37:55.624Z,19.00
2018-10-11T16:40:59.904Z,18.90
2018-10-11T16:44:04.161Z,18.80
2018-10-11T16:47:08.324Z,18.80
2018-10-11T16:50:12.535Z,18.80
2018-10-11T16:53:16.641Z,18.70
2018-10-11T16:56:20.788Z,18.60
2018-10-11T16:59:24.943Z,18.60
2018-10-11T17:02:29.082Z,18.60
2018-10-11T17:05:33.298Z,18.60
2018-10-11T17:08:37.463Z,18.60
2018-10-11T17:11:41.626Z,18.50
2018-10-11T17:14:45.771Z,18.50
2018-10-11T17:17:49.917Z,18.50
2018-10-11T17:20:54.057Z,18.40
2018-10-11T17:23:58.194Z,18.30
2018-10-11T17:27:02.427Z,18.20
2018-10-11T17:30:06.703Z,18.20
2018-10-11T17:33:11.006Z,18.20
2018-10-11T17:36:15.176Z,18.20
2018-10-11T17:39:19.335Z,18.20
2018-10-11T17:42:23.479Z,18.10
2018-10-11T17:45:27.639Z,18.10
2018-10-11T17:48:31.790Z,18.10
2018-10-11T17:51:35.929Z,18.20
2018-10-11T17:54:44.225Z,18.10
2018-10-11T17:57:48.441Z,18.10
2018-10-11T18:00:52.579Z,18.10
2018-10-11T18:03:56.745Z,18.00
2018-10-11T18:07:00.891Z,17.90
2018-10-11T18:10:05.669Z,17.90
2018-10-11T18:13:09.736Z,17.90
2018-10-11T18:16:13.972Z,17.70
2018-10-11T18:19:18.074Z,17.70
2018-10-11T18:22:22.252Z,17.70
2018-10-11T18:25:26.394Z,17.70
2018-10-11T18:28:30.543Z,17.70
2018-10-11T18:31:34.775Z,17.60
2018-10-11T18:34:38.927Z,17.60
2018-10-11T18:37:43.095Z,17.60
2018-10-11T18:40:47.266Z,17.60
2018-10-11T18:43:51.459Z,17.60
2018-10-11T18:46:55.635Z,17.50
2018-10-11T18:49:59.779Z,17.50
2018-10-11T18:53:03.929Z,17.50
2018-10-11T18:56:08.190Z,17.40
2018-10-11T18:59:12.361Z,17.40
2018-10-11T19:02:16.503Z,17.30
2018-10-11T19:05:20.748Z,17.30
2018-10-11T19:08:24.899Z,17.30
2018-10-11T19:11:29.155Z,17.30
2018-10-11T19:14:33.346Z,17.20
2018-10-11T19:17:37.483Z,17.20
2018-10-11T19:20:41.658Z,17.10
2018-10-11T19:23:45.830Z,17.00
2018-10-11T19:26:49.998Z,17.00
2018-10-11T19:29:54.235Z,17.00
2018-10-11T19:32:58.411Z,16.90
2018-10-11T19:36:02.579Z,16.90
2018-10-11T19:39:10.705Z,16.90
2018-10-11T19:42:14.829Z,16.90
2018-10-11T19:45:18.977Z,16.90
2018-10-11T19:48:23.275Z,16.80
2018-10-11T19:51:27.369Z,16.80
2018-10-11T19:54:31.567Z,16.80
2018-10-11T19:57:35.787Z,16.80
2018-10-11T20:00:39.924Z,16.70
2018-10-11T20:03:44.079Z,16.70
2018-10-11T20:06:48.225Z,16.60
2018-10-11T20:09:52.462Z,16.60
2018-10-11T20:12:56.598Z,16.60
2018-10-11T20:16:00.739Z,16.60
2018-10-11T20:19:04.933Z,16.60
2018-10-11T20:22:11.143Z,16.50
2018-10-11T20:25:15.383Z,16.50
2018-10-11T20:28:19.564Z,16.40
2018-10-11T20:31:23.699Z,16.40
2018-10-11T20:34:27.828Z,16.40
2018-10-11T20:37:31.995Z,16.40
2018-10-11T20:40:36.120Z,16.40
2018-10-11T20:43:40.355Z,16.30
2018-10-11T20:46:44.505Z,16.30
2018-10-11T20:49:48.662Z,16.30
2018-10-11T20:52:52.818Z,16.20
2018-10-11T20:55:56.967Z,16.20
2018-10-11T20:59:01.150Z,16.20
2018-10-11T21:02:05.307Z,16.20
2018-10-11T21:05:09.474Z,16.20
2018-10-11T21:08:13.686Z,16.20
2018-10-11T21:11:17.826Z,16.20
2018-10-11T21:14:21.980Z,16.20
2018-10-11T21:17:26.126Z,16.30
2018-10-11T21:20:30.484Z,16.30
2018-10-11T21:23:34.516Z,16.20
2018-10-11T21:26:38.658Z,16.20
2018-10-11T21:29:42.806Z,16.20
2018-10-11T21:32:47.023Z,16.20
2018-10-11T21:35:51.252Z,16.20
2018-10-11T21:38:55.424Z,16.20
2018-10-11T21:41:59.582Z,16.20
2018-10-11T21:45:03.724Z,16.10
2018-10-11T21:48:07.863Z,16.20
2018-10-11T21:51:11.982Z,16.10
2018-10-11T21:54:16.108Z,16.10
2018-10-11T21:57:20.255Z,16.10
2018-10-11T22:00:29.623Z,16.00
2018-10-11T22:03:33.822Z,15.90
2018-10-11T22:06:37.956Z,15.90
2018-10-11T22:09:42.092Z,15.90
2018-10-11T22:12:46.226Z,15.90
2018-10-11T22:15:50.354Z,15.90
2018-10-11T22:18:54.483Z,15.80
2018-10-11T22:21:58.625Z,15.90
2018-10-11T22:25:02.755Z,15.90
2018-10-11T22:28:06.884Z,16.00
2018-10-11T22:31:12.694Z,16.00
2018-10-11T22:34:16.821Z,16.00
2018-10-11T22:37:20.964Z,16.00
2018-10-11T22:40:25.134Z,16.00
2018-10-11T22:43:29.304Z,16.00
2018-10-11T22:46:33.455Z,16.10
2018-10-11T22:49:37.602Z,16.20
2018-10-11T22:52:41.751Z,16.20
2018-10-11T22:55:45.910Z,16.20
2018-10-11T22:58:51.360Z,16.20
2018-10-11T23:01:55.536Z,16.10
2018-10-11T23:04:59.732Z,16.10
2018-10-11T23:08:03.875Z,16.10
2018-10-11T23:11:08.439Z,16.00
2018-10-11T23:14:12.587Z,16.00
2018-10-11T23:17:16.751Z,15.90
2018-10-11T23:20:20.907Z,15.90
2018-10-11T23:23:25.059Z,15.80
2018-10-11T23:26:29.230Z,15.70
2018-10-11T23:29:33.389Z,15.60
2018-10-11T23:32:38.373Z,15.60
2018-10-11T23:35:42.497Z,15.50
2018-10-11T23:38:46.641Z,15.40
2018-10-11T23:41:50.799Z,15.30
2018-10-11T23:44:55.014Z,15.20
2018-10-11T23:47:59.163Z,15.10
2018-10-11T23:51:03.323Z,15.10
2018-10-11T23:54:07.487Z,15.00
2018-10-11T23:57:11.671Z,15.00
